Fantasy — H3GS — position and weather

sailwx.info

Track history (hours):
 
Tides and Currents Weather Stations Pressure Air Temp Water Temp Dewpoint Dewpoint Depression Visibility Wind Speed Wind Dir Waves Ship Positions

Fantasy

Operator: Carnival Cruise Lines

Last reported at 2020-Jul-27 07:59 UTC. Time now 2020-Sep-25 16:25 UTC.
Position N 36°23' E 023°32'.
Warning: this ship's position is months out of date.

Type: Ship. MMSI: 353486000.

Date/timePositionNaut miles runAvg speedWind from/ knotsBaromVisibWave heightAir tempDewpointWater temp
2020-Jul-27 07:59N 36°23' E 023°32'2013.1
2020-Jul-27 06:29N 36°08' E 023°17'42015.0
2020-Jul-26 02:30N 36°24' E 014°37'31615.2
2020-Jul-25 05:40N 37°60' E 008°18'315.2
2020-Jul-25 05:30N 37°59' E 008°15'1515.3
2020-Jul-25 04:30N 37°56' E 007°56'815.2
2020-Jul-25 04:00N 37°55' E 007°47'3115.2
2020-Jul-25 01:59N 37°50' E 007°09'21015.6
2020-Jul-24 12:30N 37°09' E 002°49'5615.9
2020-Jul-24 09:00N 36°57' E 001°40'1615.9
2020-Jul-24 08:00N 36°54' E 001°21'815.9
2020-Jul-24 07:30N 36°52' E 001°11'1815.6
2020-Jul-24 06:21N 36°47' E 000°50'615.8
2020-Jul-24 06:00N 36°46' E 000°43'2515.4
2020-Jul-24 04:24N 36°40' E 000°13'2115.3
2020-Jul-24 03:00N 36°33' W 000°12'11115.1
2020-Jul-23 19:39N 36°14' W 002°28'6716.3
2020-Jul-23 15:30N 36°06' W 003°51'3115.7
2020-Jul-23 13:30N 36°04' W 004°30'14216.6
2020-Jul-23 04:57N 35°47' W 007°24'1617.0
2020-Jul-23 04:00N 35°45' W 007°44'2617.6
2020-Jul-23 02:30N 35°41' W 008°16'1717.4
2020-Jul-23 01:30N 35°39' W 008°37'3216.2
2020-Jul-22 23:30N 35°35' W 009°17'4916.3
2020-Jul-22 20:30N 35°27' W 010°16'3416.2
2020-Jul-22 18:24N 35°22' W 010°58'1915.9
2020-Jul-22 17:11N 35°19' W 011°21'8215.8
2020-Jul-22 12:00N 35°06' W 012°60'2416.0
2020-Jul-22 10:30N 35°01' W 013°29'4015.8
2020-Jul-22 07:59N 34°54' W 014°16'2415.9
2020-Jul-22 06:27N 34°49' W 014°45'1515.6
2020-Jul-22 05:28N 34°46' W 015°04'3115.5
2020-Jul-22 03:28N 34°40' W 015°41'1514.9
2020-Jul-22 02:26N 34°36' W 015°59'  
Track history (hours):
 
Tides and Currents Weather Stations Pressure Air Temp Water Temp Dewpoint Dewpoint Depression Visibility Wind Speed Wind Dir Waves Ship Positions

Fantasy

Operator: Carnival Cruise Lines

Last reported at 2020-Jul-27 07:59 UTC. Time now 2020-Sep-25 16:25 UTC.
Position N 36°23' E 023°32'.
Warning: this ship's position is months out of date.

Type: Ship. MMSI: 353486000.

Date/timePositionNaut miles runAvg speedWind from/ knotsBaromVisibWave heightAir tempDewpointWater temp
2020-Jul-27 07:59N 36°23' E 023°32'2013.1
2020-Jul-27 06:29N 36°08' E 023°17'42015.0
2020-Jul-26 02:30N 36°24' E 014°37'31615.2
2020-Jul-25 05:40N 37°60' E 008°18'315.2
2020-Jul-25 05:30N 37°59' E 008°15'1515.3
2020-Jul-25 04:30N 37°56' E 007°56'815.2
2020-Jul-25 04:00N 37°55' E 007°47'3115.2
2020-Jul-25 01:59N 37°50' E 007°09'21015.6
2020-Jul-24 12:30N 37°09' E 002°49'5615.9
2020-Jul-24 09:00N 36°57' E 001°40'1615.9
2020-Jul-24 08:00N 36°54' E 001°21'815.9
2020-Jul-24 07:30N 36°52' E 001°11'1815.6
2020-Jul-24 06:21N 36°47' E 000°50'615.8
2020-Jul-24 06:00N 36°46' E 000°43'2515.4
2020-Jul-24 04:24N 36°40' E 000°13'2115.3
2020-Jul-24 03:00N 36°33' W 000°12'11115.1
2020-Jul-23 19:39N 36°14' W 002°28'6716.3
2020-Jul-23 15:30N 36°06' W 003°51'3115.7
2020-Jul-23 13:30N 36°04' W 004°30'14216.6
2020-Jul-23 04:57N 35°47' W 007°24'1617.0
2020-Jul-23 04:00N 35°45' W 007°44'2617.6
2020-Jul-23 02:30N 35°41' W 008°16'1717.4
2020-Jul-23 01:30N 35°39' W 008°37'3216.2
2020-Jul-22 23:30N 35°35' W 009°17'4916.3
2020-Jul-22 20:30N 35°27' W 010°16'3416.2
2020-Jul-22 18:24N 35°22' W 010°58'1915.9
2020-Jul-22 17:11N 35°19' W 011°21'8215.8
2020-Jul-22 12:00N 35°06' W 012°60'2416.0
2020-Jul-22 10:30N 35°01' W 013°29'4015.8
2020-Jul-22 07:59N 34°54' W 014°16'2415.9
2020-Jul-22 06:27N 34°49' W 014°45'1515.6
2020-Jul-22 05:28N 34°46' W 015°04'3115.5
2020-Jul-22 03:28N 34°40' W 015°41'1514.9
2020-Jul-22 02:26N 34°36' W 015°59'  

Dump ship's entire track history